sensor_id;sensor_type;location;lat;lon;timestamp;pressure;altitude;pressure_sealevel;temperature;humidity
47080;BME280;33067;49.296;14.470;2022-10-17T00:00:10;97751.02;;;19.66;42.38
47080;BME280;33067;49.296;14.470;2022-10-17T00:02:34;97752.52;;;19.62;42.53
47080;BME280;33067;49.296;14.470;2022-10-17T00:04:59;97751.26;;;19.68;42.39
47080;BME280;33067;49.296;14.470;2022-10-17T00:07:25;97753.64;;;19.46;42.34
47080;BME280;33067;49.296;14.470;2022-10-17T00:09:50;97756.79;;;19.77;42.22
47080;BME280;33067;49.296;14.470;2022-10-17T00:12:16;97757.91;;;19.80;42.12
47080;BME280;33067;49.296;14.470;2022-10-17T00:14:41;97762.78;;;19.85;41.95
47080;BME280;33067;49.296;14.470;2022-10-17T00:17:07;97769.76;;;19.82;41.97
47080;BME280;33067;49.296;14.470;2022-10-17T00:19:32;97769.66;;;20.09;41.94
47080;BME280;33067;49.296;14.470;2022-10-17T00:21:57;97771.17;;;19.77;42.00
47080;BME280;33067;49.296;14.470;2022-10-17T00:24:22;97771.89;;;19.80;41.83
47080;BME280;33067;49.296;14.470;2022-10-17T00:26:47;97772.32;;;19.79;41.70
47080;BME280;33067;49.296;14.470;2022-10-17T00:29:13;97773.39;;;19.49;41.53
47080;BME280;33067;49.296;14.470;2022-10-17T00:31:38;97773.84;;;19.73;41.50
47080;BME280;33067;49.296;14.470;2022-10-17T00:34:04;97773.71;;;19.63;41.66
47080;BME280;33067;49.296;14.470;2022-10-17T00:36:30;97772.39;;;19.58;41.76
47080;BME280;33067;49.296;14.470;2022-10-17T00:38:57;97771.34;;;19.79;41.88
47080;BME280;33067;49.296;14.470;2022-10-17T00:41:23;97768.79;;;19.17;41.37
47080;BME280;33067;49.296;14.470;2022-10-17T00:43:51;97770.38;;;19.52;41.39
47080;BME280;33067;49.296;14.470;2022-10-17T00:46:11;97767.88;;;19.53;41.02
47080;BME280;33067;49.296;14.470;2022-10-17T00:48:37;97766.56;;;19.37;40.92
47080;BME280;33067;49.296;14.470;2022-10-17T00:51:02;97768.62;;;19.30;41.08
47080;BME280;33067;49.296;14.470;2022-10-17T00:53:28;97769.76;;;19.01;41.23
47080;BME280;33067;49.296;14.470;2022-10-17T00:55:54;97765.94;;;19.20;41.16
47080;BME280;33067;49.296;14.470;2022-10-17T00:58:20;97767.49;;;19.16;41.11
47080;BME280;33067;49.296;14.470;2022-10-17T01:00:45;97765.90;;;19.06;41.46
47080;BME280;33067;49.296;14.470;2022-10-17T01:03:10;97767.09;;;19.06;41.52
47080;BME280;33067;49.296;14.470;2022-10-17T01:05:36;97766.04;;;19.06;41.66
47080;BME280;33067;49.296;14.470;2022-10-17T01:08:01;97768.60;;;19.10;41.72
47080;BME280;33067;49.296;14.470;2022-10-17T01:10:32;97771.01;;;18.88;41.64
47080;BME280;33067;49.296;14.470;2022-10-17T01:13:02;97768.31;;;19.19;41.88
47080;BME280;33067;49.296;14.470;2022-10-17T01:15:28;97770.41;;;19.22;42.01
47080;BME280;33067;49.296;14.470;2022-10-17T01:17:51;97772.44;;;19.22;42.07
47080;BME280;33067;49.296;14.470;2022-10-17T01:22:38;97771.37;;;19.26;42.18
47080;BME280;33067;49.296;14.470;2022-10-17T01:25:13;97770.52;;;19.17;41.84
47080;BME280;33067;49.296;14.470;2022-10-17T01:27:36;97768.94;;;19.08;41.24
47080;BME280;33067;49.296;14.470;2022-10-17T01:30:00;97768.62;;;18.91;41.34
47080;BME280;33067;49.296;14.470;2022-10-17T01:32:16;97770.50;;;18.91;40.95
47080;BME280;33067;49.296;14.470;2022-10-17T01:34:45;97773.76;;;18.86;41.12
47080;BME280;33067;49.296;14.470;2022-10-17T01:37:07;97775.54;;;18.82;41.34
47080;BME280;33067;49.296;14.470;2022-10-17T01:39:38;97773.99;;;19.06;41.53
47080;BME280;33067;49.296;14.470;2022-10-17T01:42:02;97774.81;;;18.79;41.44
47080;BME280;33067;49.296;14.470;2022-10-17T01:44:27;97776.14;;;18.77;41.50
47080;BME280;33067;49.296;14.470;2022-10-17T01:46:49;97776.42;;;18.68;41.62
47080;BME280;33067;49.296;14.470;2022-10-17T01:49:14;97776.51;;;18.00;41.34
47080;BME280;33067;49.296;14.470;2022-10-17T01:51:39;97772.15;;;19.30;40.23
47080;BME280;33067;49.296;14.470;2022-10-17T01:54:06;97772.75;;;19.33;40.34
47080;BME280;33067;49.296;14.470;2022-10-17T01:56:29;97770.92;;;19.12;40.31
47080;BME280;33067;49.296;14.470;2022-10-17T01:58:57;97770.52;;;18.82;39.83
47080;BME280;33067;49.296;14.470;2022-10-17T02:01:20;97768.27;;;18.57;39.66
47080;BME280;33067;49.296;14.470;2022-10-17T02:03:45;97770.14;;;18.28;40.38
47080;BME280;33067;49.296;14.470;2022-10-17T02:06:10;97768.43;;;18.49;40.44
47080;BME280;33067;49.296;14.470;2022-10-17T02:08:41;97771.10;;;18.73;40.51
47080;BME280;33067;49.296;14.470;2022-10-17T02:13:02;97769.92;;;18.84;40.11
47080;BME280;33067;49.296;14.470;2022-10-17T02:15:39;97764.66;;;18.30;40.66
47080;BME280;33067;49.296;14.470;2022-10-17T02:17:59;97765.58;;;18.42;40.94
47080;BME280;33067;49.296;14.470;2022-10-17T02:20:20;97765.09;;;17.68;41.58
47080;BME280;33067;49.296;14.470;2022-10-17T02:22:46;97762.35;;;17.84;41.50
47080;BME280;33067;49.296;14.470;2022-10-17T02:25:13;97760.06;;;17.96;41.45
47080;BME280;33067;49.296;14.470;2022-10-17T02:27:41;97757.64;;;18.09;41.35
47080;BME280;33067;49.296;14.470;2022-10-17T02:30:04;97759.14;;;17.96;41.22
47080;BME280;33067;49.296;14.470;2022-10-17T02:32:27;97761.43;;;18.16;41.42
47080;BME280;33067;49.296;14.470;2022-10-17T02:34:50;97763.46;;;17.90;41.31
47080;BME280;33067;49.296;14.470;2022-10-17T02:37:16;97764.02;;;18.20;41.05
47080;BME280;33067;49.296;14.470;2022-10-17T02:39:40;97763.97;;;18.29;40.85
47080;BME280;33067;49.296;14.470;2022-10-17T02:42:07;97766.24;;;18.27;40.83
47080;BME280;33067;49.296;14.470;2022-10-17T02:44:31;97767.95;;;18.03;40.66
47080;BME280;33067;49.296;14.470;2022-10-17T02:47:02;97770.92;;;18.22;40.58
47080;BME280;33067;49.296;14.470;2022-10-17T02:49:23;97774.84;;;17.99;40.23
47080;BME280;33067;49.296;14.470;2022-10-17T02:51:50;97777.20;;;18.15;39.60
47080;BME280;33067;49.296;14.470;2022-10-17T02:54:17;97778.76;;;18.09;39.76
47080;BME280;33067;49.296;14.470;2022-10-17T02:56:41;97779.67;;;17.67;40.18
47080;BME280;33067;49.296;14.470;2022-10-17T02:59:04;97782.04;;;17.54;40.34
47080;BME280;33067;49.296;14.470;2022-10-17T03:01:29;97783.51;;;17.65;40.51
47080;BME280;33067;49.296;14.470;2022-10-17T03:04:03;97781.85;;;17.64;40.59
47080;BME280;33067;49.296;14.470;2022-10-17T03:06:20;97782.71;;;17.63;40.64
47080;BME280;33067;49.296;14.470;2022-10-17T03:08:45;97784.66;;;17.31;40.43
47080;BME280;33067;49.296;14.470;2022-10-17T03:11:10;97786.85;;;17.73;40.58
47080;BME280;33067;49.296;14.470;2022-10-17T03:13:36;97788.15;;;17.44;40.91
47080;BME280;33067;49.296;14.470;2022-10-17T03:16:02;97791.83;;;17.40;41.17
47080;BME280;33067;49.296;14.470;2022-10-17T03:18:27;97791.68;;;17.42;41.25
47080;BME280;33067;49.296;14.470;2022-10-17T03:20:52;97793.13;;;17.54;40.91
47080;BME280;33067;49.296;14.470;2022-10-17T03:23:17;97791.21;;;17.40;40.76
47080;BME280;33067;49.296;14.470;2022-10-17T03:25:43;97790.49;;;17.51;40.62
47080;BME280;33067;49.296;14.470;2022-10-17T03:28:09;97794.82;;;17.06;41.13
47080;BME280;33067;49.296;14.470;2022-10-17T03:30:33;97793.12;;;17.10;40.74
47080;BME280;33067;49.296;14.470;2022-10-17T03:32:59;97795.67;;;16.85;41.14
47080;BME280;33067;49.296;14.470;2022-10-17T03:35:25;97797.58;;;16.55;40.92
47080;BME280;33067;49.296;14.470;2022-10-17T03:37:50;97801.27;;;17.13;40.61
47080;BME280;33067;49.296;14.470;2022-10-17T03:40:15;97801.70;;;16.97;40.04
47080;BME280;33067;49.296;14.470;2022-10-17T03:42:41;97800.29;;;16.60;40.52
47080;BME280;33067;49.296;14.470;2022-10-17T03:45:07;97801.44;;;16.78;40.55
47080;BME280;33067;49.296;14.470;2022-10-17T03:47:32;97801.32;;;16.57;40.85
47080;BME280;33067;49.296;14.470;2022-10-17T03:49:57;97802.87;;;16.51;40.87
47080;BME280;33067;49.296;14.470;2022-10-17T03:52:22;97801.08;;;16.51;40.89
47080;BME280;33067;49.296;14.470;2022-10-17T03:54:49;97802.78;;;16.37;41.16
47080;BME280;33067;49.296;14.470;2022-10-17T03:57:14;97804.21;;;16.60;40.95
47080;BME280;33067;49.296;14.470;2022-10-17T03:59:39;97804.82;;;16.57;40.94
47080;BME280;33067;49.296;14.470;2022-10-17T04:02:05;97807.35;;;16.38;41.06
47080;BME280;33067;49.296;14.470;2022-10-17T04:04:30;97808.84;;;16.38;41.15
47080;BME280;33067;49.296;14.470;2022-10-17T04:06:55;97811.20;;;16.18;41.48
47080;BME280;33067;49.296;14.470;2022-10-17T04:09:21;97812.99;;;16.24;41.48
47080;BME280;33067;49.296;14.470;2022-10-17T04:11:46;97815.58;;;16.55;40.88
47080;BME280;33067;49.296;14.470;2022-10-17T04:14:12;97813.59;;;16.46;40.86
47080;BME280;33067;49.296;14.470;2022-10-17T04:16:38;97811.71;;;16.50;40.74
47080;BME280;33067;49.296;14.470;2022-10-17T04:19:03;97814.00;;;16.34;40.80
47080;BME280;33067;49.296;14.470;2022-10-17T04:21:29;97818.00;;;16.23;41.15
47080;BME280;33067;49.296;14.470;2022-10-17T04:23:55;97820.15;;;16.64;41.16
47080;BME280;33067;49.296;14.470;2022-10-17T04:26:20;97823.41;;;16.22;41.51
47080;BME280;33067;49.296;14.470;2022-10-17T04:28:45;97824.55;;;16.26;41.57
47080;BME280;33067;49.296;14.470;2022-10-17T04:31:12;97831.72;;;16.36;41.47
47080;BME280;33067;49.296;14.470;2022-10-17T04:33:37;97834.46;;;16.25;41.75
47080;BME280;33067;49.296;14.470;2022-10-17T04:36:04;97834.78;;;16.16;41.83
47080;BME280;33067;49.296;14.470;2022-10-17T04:38:28;97838.15;;;15.98;42.06
47080;BME280;33067;49.296;14.470;2022-10-17T04:40:52;97839.94;;;16.11;41.98
47080;BME280;33067;49.296;14.470;2022-10-17T04:43:18;97842.98;;;16.11;42.07
47080;BME280;33067;49.296;14.470;2022-10-17T04:45:43;97842.20;;;16.25;41.83
47080;BME280;33067;49.296;14.470;2022-10-17T04:48:08;97843.24;;;16.10;42.32
47080;BME280;33067;49.296;14.470;2022-10-17T04:50:34;97842.36;;;16.41;42.03
47080;BME280;33067;49.296;14.470;2022-10-17T04:52:59;97846.41;;;16.46;42.28
47080;BME280;33067;49.296;14.470;2022-10-17T04:55:24;97845.06;;;16.53;42.70
47080;BME280;33067;49.296;14.470;2022-10-17T04:57:49;97846.87;;;16.61;43.08
47080;BME280;33067;49.296;14.470;2022-10-17T05:00:14;97844.93;;;16.69;42.95
47080;BME280;33067;49.296;14.470;2022-10-17T05:02:40;97840.96;;;16.74;42.72
47080;BME280;33067;49.296;14.470;2022-10-17T05:05:06;97840.33;;;16.66;42.96
47080;BME280;33067;49.296;14.470;2022-10-17T05:07:31;97840.14;;;16.72;42.93
47080;BME280;33067;49.296;14.470;2022-10-17T05:09:56;97842.06;;;16.79;42.86
47080;BME280;33067;49.296;14.470;2022-10-17T05:12:21;97844.79;;;16.74;43.17
47080;BME280;33067;49.296;14.470;2022-10-17T05:14:47;97846.95;;;16.82;42.66
47080;BME280;33067;49.296;14.470;2022-10-17T05:17:13;97846.20;;;17.15;42.65
47080;BME280;33067;49.296;14.470;2022-10-17T05:19:38;97845.00;;;17.09;42.75
47080;BME280;33067;49.296;14.470;2022-10-17T05:22:04;97843.64;;;17.01;42.77
47080;BME280;33067;49.296;14.470;2022-10-17T05:24:29;97845.01;;;16.91;42.61
47080;BME280;33067;49.296;14.470;2022-10-17T05:26:54;97849.15;;;16.82;42.92
47080;BME280;33067;49.296;14.470;2022-10-17T05:29:25;97849.78;;;16.83;43.08
47080;BME280;33067;49.296;14.470;2022-10-17T05:31:45;97846.29;;;16.91;43.62
47080;BME280;33067;49.296;14.470;2022-10-17T05:34:11;97848.55;;;17.03;43.74
47080;BME280;33067;49.296;14.470;2022-10-17T05:36:36;97847.21;;;16.83;43.92
47080;BME280;33067;49.296;14.470;2022-10-17T05:39:02;97851.04;;;16.76;44.34
47080;BME280;33067;49.296;14.470;2022-10-17T05:41:27;97855.58;;;16.85;44.25
47080;BME280;33067;49.296;14.470;2022-10-17T05:43:52;97859.81;;;16.94;44.21
47080;BME280;33067;49.296;14.470;2022-10-17T05:46:18;97866.51;;;17.11;44.04
47080;BME280;33067;49.296;14.470;2022-10-17T05:48:43;97870.02;;;17.20;44.05
47080;BME280;33067;49.296;14.470;2022-10-17T05:51:09;97876.30;;;17.04;44.08
47080;BME280;33067;49.296;14.470;2022-10-17T05:53:36;97880.84;;;17.37;44.05
47080;BME280;33067;49.296;14.470;2022-10-17T05:56:01;97883.34;;;17.44;43.91
47080;BME280;33067;49.296;14.470;2022-10-17T05:58:26;97885.18;;;17.09;43.84
47080;BME280;33067;49.296;14.470;2022-10-17T06:00:51;97885.86;;;17.26;44.31
47080;BME280;33067;49.296;14.470;2022-10-17T06:03:16;97887.62;;;17.24;44.36
47080;BME280;33067;49.296;14.470;2022-10-17T06:05:41;97887.45;;;16.82;44.11
47080;BME280;33067;49.296;14.470;2022-10-17T06:08:07;97889.50;;;16.65;44.42
47080;BME280;33067;49.296;14.470;2022-10-17T06:10:32;97888.87;;;16.53;44.18
47080;BME280;33067;49.296;14.470;2022-10-17T06:12:57;97887.57;;;17.09;43.95
47080;BME280;33067;49.296;14.470;2022-10-17T06:15:23;97886.40;;;16.93;44.23
47080;BME280;33067;49.296;14.470;2022-10-17T06:17:48;97890.12;;;16.84;44.52
47080;BME280;33067;49.296;14.470;2022-10-17T06:20:13;97890.42;;;16.81;44.44
47080;BME280;33067;49.296;14.470;2022-10-17T06:22:39;97895.75;;;16.64;44.87
47080;BME280;33067;49.296;14.470;2022-10-17T06:25:04;97896.89;;;16.70;45.20
47080;BME280;33067;49.296;14.470;2022-10-17T06:27:29;97902.18;;;16.60;45.47
47080;BME280;33067;49.296;14.470;2022-10-17T06:29:54;97904.37;;;16.69;45.82
47080;BME280;33067;49.296;14.470;2022-10-17T06:32:20;97907.31;;;16.78;45.94
47080;BME280;33067;49.296;14.470;2022-10-17T06:34:45;97909.63;;;16.54;46.62
47080;BME280;33067;49.296;14.470;2022-10-17T06:37:10;97913.25;;;17.12;46.18
47080;BME280;33067;49.296;14.470;2022-10-17T06:39:37;97917.46;;;17.38;45.97
47080;BME280;33067;49.296;14.470;2022-10-17T06:42:02;97918.10;;;17.23;45.70
47080;BME280;33067;49.296;14.470;2022-10-17T06:44:27;97923.08;;;16.88;46.38
47080;BME280;33067;49.296;14.470;2022-10-17T06:46:52;97931.39;;;16.15;47.79
47080;BME280;33067;49.296;14.470;2022-10-17T06:49:17;97939.07;;;16.12;47.82
47080;BME280;33067;49.296;14.470;2022-10-17T06:51:43;97940.28;;;16.44;47.60
47080;BME280;33067;49.296;14.470;2022-10-17T06:54:09;97941.34;;;16.49;47.44
47080;BME280;33067;49.296;14.470;2022-10-17T06:56:34;97939.04;;;16.47;47.61
47080;BME280;33067;49.296;14.470;2022-10-17T06:58:59;97946.19;;;16.06;48.12
47080;BME280;33067;49.296;14.470;2022-10-17T07:01:25;97939.95;;;16.68;47.70
47080;BME280;33067;49.296;14.470;2022-10-17T07:03:51;97942.39;;;16.86;47.28
47080;BME280;33067;49.296;14.470;2022-10-17T07:06:16;97947.13;;;16.85;47.36
47080;BME280;33067;49.296;14.470;2022-10-17T07:08:42;97948.89;;;16.69;47.31
47080;BME280;33067;49.296;14.470;2022-10-17T07:11:09;97955.89;;;17.21;46.62
47080;BME280;33067;49.296;14.470;2022-10-17T07:13:32;97954.79;;;16.47;47.36
47080;BME280;33067;49.296;14.470;2022-10-17T07:15:58;97963.05;;;16.40;47.90
47080;BME280;33067;49.296;14.470;2022-10-17T07:18:24;97964.02;;;16.44;48.04
47080;BME280;33067;49.296;14.470;2022-10-17T07:20:52;97962.51;;;16.63;47.73
47080;BME280;33067;49.296;14.470;2022-10-17T07:23:15;97966.53;;;16.16;48.45
47080;BME280;33067;49.296;14.470;2022-10-17T07:25:40;97968.13;;;16.62;47.96
47080;BME280;33067;49.296;14.470;2022-10-17T07:28:05;97973.03;;;16.43;48.29
47080;BME280;33067;49.296;14.470;2022-10-17T07:30:32;97976.52;;;16.45;48.30
47080;BME280;33067;49.296;14.470;2022-10-17T07:32:59;97977.48;;;16.31;48.67
47080;BME280;33067;49.296;14.470;2022-10-17T07:35:25;97977.95;;;16.16;48.79
47080;BME280;33067;49.296;14.470;2022-10-17T07:37:47;97978.06;;;16.20;48.85
47080;BME280;33067;49.296;14.470;2022-10-17T07:40:13;97977.65;;;16.38;48.88
47080;BME280;33067;49.296;14.470;2022-10-17T07:42:41;97976.06;;;16.26;48.74
47080;BME280;33067;49.296;14.470;2022-10-17T07:47:31;97977.84;;;16.62;48.89
47080;BME280;33067;49.296;14.470;2022-10-17T07:49:56;97978.26;;;16.61;48.03
47080;BME280;33067;49.296;14.470;2022-10-17T07:52:22;97982.26;;;16.78;48.23
47080;BME280;33067;49.296;14.470;2022-10-17T07:54:49;97981.13;;;16.75;48.17
47080;BME280;33067;49.296;14.470;2022-10-17T07:57:16;97983.16;;;16.35;48.92
47080;BME280;33067;49.296;14.470;2022-10-17T07:59:48;97981.47;;;16.70;48.50
47080;BME280;33067;49.296;14.470;2022-10-17T08:02:04;97975.51;;;17.00;48.05
47080;BME280;33067;49.296;14.470;2022-10-17T08:04:28;97976.80;;;17.06;47.73
47080;BME280;33067;49.296;14.470;2022-10-17T08:06:59;97977.85;;;17.10;47.49
47080;BME280;33067;49.296;14.470;2022-10-17T08:09:25;97978.84;;;16.85;47.21
47080;BME280;33067;49.296;14.470;2022-10-17T08:11:45;97981.38;;;17.34;46.96
47080;BME280;33067;49.296;14.470;2022-10-17T08:14:12;97978.48;;;16.72;47.57
47080;BME280;33067;49.296;14.470;2022-10-17T08:16:36;97981.39;;;16.98;47.30
47080;BME280;33067;49.296;14.470;2022-10-17T08:19:06;97978.52;;;16.93;47.96
47080;BME280;33067;49.296;14.470;2022-10-17T08:21:29;97980.25;;;16.77;47.33
47080;BME280;33067;49.296;14.470;2022-10-17T08:23:52;97978.83;;;16.83;47.36
47080;BME280;33067;49.296;14.470;2022-10-17T08:26:22;97984.31;;;16.70;46.96
47080;BME280;33067;49.296;14.470;2022-10-17T08:28:46;97985.70;;;17.25;46.83
47080;BME280;33067;49.296;14.470;2022-10-17T08:31:10;97987.78;;;16.72;47.16
47080;BME280;33067;49.296;14.470;2022-10-17T08:33:35;97987.28;;;16.84;47.60
47080;BME280;33067;49.296;14.470;2022-10-17T08:36:03;97992.29;;;16.11;48.35
47080;BME280;33067;49.296;14.470;2022-10-17T08:38:28;97990.84;;;16.39;48.53
47080;BME280;33067;49.296;14.470;2022-10-17T08:40:50;97993.58;;;16.60;48.29
47080;BME280;33067;49.296;14.470;2022-10-17T08:43:27;97996.50;;;16.28;48.71
47080;BME280;33067;49.296;14.470;2022-10-17T08:45:44;97997.46;;;16.91;47.91
47080;BME280;33067;49.296;14.470;2022-10-17T08:48:11;98003.17;;;16.03;48.69
47080;BME280;33067;49.296;14.470;2022-10-17T08:50:36;97997.44;;;16.42;48.26
47080;BME280;33067;49.296;14.470;2022-10-17T08:53:00;97993.44;;;16.92;47.74
47080;BME280;33067;49.296;14.470;2022-10-17T08:55:37;97995.32;;;16.30;48.31
47080;BME280;33067;49.296;14.470;2022-10-17T08:57:50;97993.50;;;16.49;48.18
47080;BME280;33067;49.296;14.470;2022-10-17T09:00:17;97994.44;;;16.47;47.91
47080;BME280;33067;49.296;14.470;2022-10-17T09:02:46;97995.12;;;16.22;48.35
47080;BME280;33067;49.296;14.470;2022-10-17T09:05:20;97988.44;;;16.92;47.69
47080;BME280;33067;49.296;14.470;2022-10-17T09:07:34;97990.06;;;16.35;48.15
47080;BME280;33067;49.296;14.470;2022-10-17T09:10:01;97985.77;;;16.19;48.62
47080;BME280;33067;49.296;14.470;2022-10-17T09:12:24;97988.42;;;16.07;48.63
47080;BME280;33067;49.296;14.470;2022-10-17T09:14:56;97985.96;;;16.41;48.72
47080;BME280;33067;49.296;14.470;2022-10-17T09:17:19;97983.12;;;17.02;47.09
47080;BME280;33067;49.296;14.470;2022-10-17T09:19:39;97981.40;;;17.15;46.68
47080;BME280;33067;49.296;14.470;2022-10-17T09:22:08;97981.83;;;17.75;46.05
47080;BME280;33067;49.296;14.470;2022-10-17T09:24:37;97983.51;;;18.20;45.04
47080;BME280;33067;49.296;14.470;2022-10-17T09:26:55;97983.47;;;17.67;45.30
47080;BME280;33067;49.296;14.470;2022-10-17T09:29:29;97979.98;;;18.28;44.33
47080;BME280;33067;49.296;14.470;2022-10-17T09:31:47;97977.71;;;18.13;44.52
47080;BME280;33067;49.296;14.470;2022-10-17T09:34:10;97976.96;;;18.09;44.66
47080;BME280;33067;49.296;14.470;2022-10-17T09:36:36;97978.31;;;17.41;45.26
47080;BME280;33067;49.296;14.470;2022-10-17T09:39:01;97979.19;;;18.27;44.61
47080;BME280;33067;49.296;14.470;2022-10-17T09:41:31;97981.85;;;18.16;44.51
47080;BME280;33067;49.296;14.470;2022-10-17T09:43:52;97977.37;;;17.89;44.91
47080;BME280;33067;49.296;14.470;2022-10-17T09:46:23;97976.21;;;17.85;45.18
47080;BME280;33067;49.296;14.470;2022-10-17T09:49:04;97976.23;;;18.27;45.06
47080;BME280;33067;49.296;14.470;2022-10-17T09:51:14;97975.08;;;18.01;44.46
47080;BME280;33067;49.296;14.470;2022-10-17T09:53:36;97975.06;;;18.68;44.07
47080;BME280;33067;49.296;14.470;2022-10-17T09:56:00;97977.15;;;18.18;44.60
47080;BME280;33067;49.296;14.470;2022-10-17T09:58:24;97977.28;;;18.88;43.78
47080;BME280;33067;49.296;14.470;2022-10-17T10:01:13;97974.75;;;18.89;43.45
47080;BME280;33067;49.296;14.470;2022-10-17T10:03:16;97974.54;;;18.97;43.11
47080;BME280;33067;49.296;14.470;2022-10-17T10:08:14;97977.12;;;19.73;41.99
47080;BME280;33067;49.296;14.470;2022-10-17T10:10:31;97979.20;;;19.90;41.66
47080;BME280;33067;49.296;14.470;2022-10-17T10:13:04;97979.05;;;19.46;42.04
47080;BME280;33067;49.296;14.470;2022-10-17T10:15:33;97979.23;;;19.79;41.98
47080;BME280;33067;49.296;14.470;2022-10-17T10:17:47;97980.04;;;19.73;42.04
47080;BME280;33067;49.296;14.470;2022-10-17T10:20:27;97976.35;;;19.33;42.32
47080;BME280;33067;49.296;14.470;2022-10-17T10:22:37;97977.16;;;19.66;42.05
47080;BME280;33067;49.296;14.470;2022-10-17T10:25:13;97973.73;;;20.30;41.44
47080;BME280;33067;49.296;14.470;2022-10-17T10:27:28;97967.40;;;20.08;41.33
47080;BME280;33067;49.296;14.470;2022-10-17T10:29:53;97963.56;;;20.45;41.35
47080;BME280;33067;49.296;14.470;2022-10-17T10:32:20;97960.87;;;20.57;41.09
47080;BME280;33067;49.296;14.470;2022-10-17T10:34:48;97960.73;;;20.12;41.62
47080;BME280;33067;49.296;14.470;2022-10-17T10:37:16;97958.91;;;20.58;41.12
47080;BME280;33067;49.296;14.470;2022-10-17T10:39:40;97957.13;;;20.60;40.88
47080;BME280;33067;49.296;14.470;2022-10-17T10:42:01;97957.53;;;20.55;40.55
47080;BME280;33067;49.296;14.470;2022-10-17T10:44:28;97958.72;;;21.17;40.53
47080;BME280;33067;49.296;14.470;2022-10-17T10:49:28;97950.84;;;20.48;40.09
47080;BME280;33067;49.296;14.470;2022-10-17T10:51:44;97944.70;;;20.86;40.46
47080;BME280;33067;49.296;14.470;2022-10-17T10:54:10;97943.16;;;20.18;41.29
47080;BME280;33067;49.296;14.470;2022-10-17T10:56:36;97941.06;;;20.25;41.01
47080;BME280;33067;49.296;14.470;2022-10-17T10:59:02;97937.59;;;20.06;40.94
47080;BME280;33067;49.296;14.470;2022-10-17T11:01:28;97937.99;;;20.61;40.66
47080;BME280;33067;49.296;14.470;2022-10-17T11:03:58;97934.26;;;19.93;41.29
47080;BME280;33067;49.296;14.470;2022-10-17T11:06:18;97933.88;;;20.36;41.28
47080;BME280;33067;49.296;14.470;2022-10-17T11:08:43;97933.03;;;20.38;41.19
47080;BME280;33067;49.296;14.470;2022-10-17T11:11:12;97935.81;;;20.41;40.98
47080;BME280;33067;49.296;14.470;2022-10-17T11:13:35;97925.54;;;20.07;41.55
47080;BME280;33067;49.296;14.470;2022-10-17T11:15:58;97926.33;;;20.34;41.23
47080;BME280;33067;49.296;14.470;2022-10-17T11:18:23;97919.05;;;20.80;40.15
47080;BME280;33067;49.296;14.470;2022-10-17T11:20:52;97915.40;;;20.50;41.16
47080;BME280;33067;49.296;14.470;2022-10-17T11:23:16;97916.49;;;20.98;40.55
47080;BME280;33067;49.296;14.470;2022-10-17T11:25:39;97915.00;;;20.88;40.57
47080;BME280;33067;49.296;14.470;2022-10-17T11:28:10;97916.84;;;21.02;40.59
47080;BME280;33067;49.296;14.470;2022-10-17T11:30:38;97914.24;;;21.29;39.94
47080;BME280;33067;49.296;14.470;2022-10-17T11:33:01;97915.14;;;20.69;40.96
47080;BME280;33067;49.296;14.470;2022-10-17T11:35:22;97912.70;;;21.05;40.73
47080;BME280;33067;49.296;14.470;2022-10-17T11:37:49;97906.98;;;21.20;40.43
47080;BME280;33067;49.296;14.470;2022-10-17T11:40:15;97906.52;;;21.50;40.75
47080;BME280;33067;49.296;14.470;2022-10-17T11:42:41;97907.09;;;21.24;40.54
47080;BME280;33067;49.296;14.470;2022-10-17T11:45:03;97905.52;;;20.79;41.10
47080;BME280;33067;49.296;14.470;2022-10-17T11:47:35;97910.98;;;20.36;41.82
47080;BME280;33067;49.296;14.470;2022-10-17T11:49:53;97908.48;;;20.98;41.34
47080;BME280;33067;49.296;14.470;2022-10-17T11:52:26;97908.69;;;21.05;41.00
47080;BME280;33067;49.296;14.470;2022-10-17T11:54:44;97904.59;;;21.39;40.94
47080;BME280;33067;49.296;14.470;2022-10-17T11:59:52;97899.71;;;20.91;40.94
47080;BME280;33067;49.296;14.470;2022-10-17T12:02:03;97899.54;;;20.22;42.04
47080;BME280;33067;49.296;14.470;2022-10-17T12:04:34;97897.51;;;21.49;40.90
47080;BME280;33067;49.296;14.470;2022-10-17T12:06:58;97891.82;;;21.10;40.62
47080;BME280;33067;49.296;14.470;2022-10-17T12:09:24;97892.07;;;21.76;39.73
47080;BME280;33067;49.296;14.470;2022-10-17T12:11:47;97888.27;;;22.06;38.89
47080;BME280;33067;49.296;14.470;2022-10-17T12:16:45;97889.03;;;22.03;38.75
47080;BME280;33067;49.296;14.470;2022-10-17T12:23:50;97880.69;;;22.18;38.06
47080;BME280;33067;49.296;14.470;2022-10-17T12:26:32;97879.75;;;22.33;38.24
47080;BME280;33067;49.296;14.470;2022-10-17T12:28:43;97881.85;;;22.28;38.48
47080;BME280;33067;49.296;14.470;2022-10-17T12:33:34;97879.30;;;21.87;38.76
47080;BME280;33067;49.296;14.470;2022-10-17T12:38:30;97879.50;;;22.13;38.41
47080;BME280;33067;49.296;14.470;2022-10-17T12:45:53;97888.84;;;22.40;38.16
47080;BME280;33067;49.296;14.470;2022-10-17T12:53:00;97888.85;;;22.14;37.88
47080;BME280;33067;49.296;14.470;2022-10-17T12:55:30;97885.94;;;22.05;38.52
47080;BME280;33067;49.296;14.470;2022-10-17T13:00:27;97887.43;;;21.25;38.05
47080;BME280;33067;49.296;14.470;2022-10-17T13:02:32;97881.89;;;21.88;37.77
47080;BME280;33067;49.296;14.470;2022-10-17T13:05:06;97885.31;;;21.93;37.65
47080;BME280;33067;49.296;14.470;2022-10-17T13:07:23;97888.86;;;21.85;37.77
47080;BME280;33067;49.296;14.470;2022-10-17T13:09:50;97891.48;;;21.21;38.46
47080;BME280;33067;49.296;14.470;2022-10-17T13:12:24;97891.79;;;20.77;39.64
47080;BME280;33067;49.296;14.470;2022-10-17T13:14:42;97889.54;;;21.32;38.76
47080;BME280;33067;49.296;14.470;2022-10-17T13:19:38;97893.76;;;20.85;38.82